Time;durP1;ratioP1;P1;durP2;ratioP2;P2;SDS_P1;SDS_P2;PMS_P1;PMS_P2;Temp;Humidity;BMP_temperature;BMP_pressure;BME280_temperature;BME280_humidity;BME280_pressure;Samples;Min_cycle;Max_cycle;Signal;HPM_P1;HPM_P2
2021/05/27 00:00:06;;;;;;;;;;;;;;;;;;2089620;28;43514;-68
2021/05/27 00:01:07;;;;;;;;;;;;;;;;;;2097697;28;44156;-68
2021/05/27 00:02:08;;;;;;;;;;;;;;;;;;2089079;28;45328;-68
2021/05/27 00:03:10;;;;;;;;;;;;;;;;;;2081431;28;46646;-67
2021/05/27 00:04:11;;;;;;;;;;;;;;;;;;2089392;28;45098;-68
2021/05/27 00:05:16;;;;;;;;;;;;;;;;;;2089577;28;46519;-68
2021/05/27 00:06:17;;;;;;;;;;;;;;;;;;2089071;28;45295;-68
2021/05/27 00:07:19;;;;;;;;;;;;;;;;;;2090028;28;45276;-68
2021/05/27 00:08:20;;;;;;;;;;;;;;;;;;2097873;28;45259;-68
2021/05/27 00:09:21;;;;;;;;;;;;;;;;;;2089338;28;46507;-68
2021/05/27 00:10:24;;;;;;;;;;;;;;;;;;2089352;28;46505;-68
2021/05/27 00:11:26;;;;;;;;;;;;;;;;;;2089864;28;44055;-68
2021/05/27 00:12:27;;;;;;;;;;;;;;;;;;2089323;28;45352;-68
2021/05/27 00:13:28;;;;;;;;;;;;;;;;;;2089570;28;45634;-69
2021/05/27 00:14:30;;;;;;;;;;;;;;;;;;2097791;28;45368;-67
2021/05/27 00:15:31;;;;;;;;;;;;;;;;;;2097820;28;46513;-67
2021/05/27 00:16:33;;;;;;;;;;;;;;;;;;2089716;28;45399;-66
2021/05/27 00:17:34;;;;;;;;;;;;;;;;;;2097899;28;46507;-67
2021/05/27 00:18:36;;;;;;;;;;;;;;;;;;2097803;28;44212;-67
2021/05/27 00:19:37;;;;;;;;;;;;;;;;;;2097653;28;45428;-67
2021/05/27 00:20:39;;;;;;;;;;;;;;;;;;2097636;28;46685;-67
2021/05/27 00:21:40;;;;;;;;;;;;;;;;;;2089503;28;45394;-67
2021/05/27 00:22:42;;;;;;;;;;;;;;;;;;2088910;28;46668;-67
2021/05/27 00:23:43;;;;;;;;;;;;;;;;;;2090018;28;45380;-68
2021/05/27 00:24:45;;;;;;;;;;;;;;;;;;2097885;28;45604;-68
2021/05/27 00:25:46;;;;;;;;;;;;;;;;;;2089383;28;45754;-68
2021/05/27 00:26:48;;;;;;;;;;;;;;;;;;2080967;28;44015;-68
2021/05/27 00:27:49;;;;;;;;;;;;;;;;;;2089449;28;45278;-68
2021/05/27 00:28:50;;;;;;;;;;;;;;;;;;2089486;28;45131;-68
2021/05/27 00:29:52;;;;;;;;;;;;;;;;;;2089413;28;45915;-68
2021/05/27 00:30:53;;;;;;;;;;;;;;;;;;2089912;28;46076;-68
2021/05/27 00:31:55;;;;;;;;;;;;;;;;;;2097696;28;45863;-68
2021/05/27 00:32:56;;;;;;;;;;;;;;;;;;2089176;28;46932;-68
2021/05/27 00:33:57;;;;;;;;;;;;;;;;;;2089696;28;45981;-68
2021/05/27 00:34:59;;;;;;;;;;;;;;;;;;2089247;28;45889;-68
2021/05/27 00:36:01;;;;;;;;;;;;;;;;;;2089962;28;44793;-68
2021/05/27 00:37:02;;;;;;;;;;;;;;;;;;2089118;28;46888;-69
2021/05/27 00:38:03;;;;;;;;;;;;;;;;;;2089244;28;48256;-69
2021/05/27 00:39:05;;;;;;;;;;;;;;;;;;2089340;28;47068;-68
2021/05/27 00:40:07;;;;;;;;;;;;;;;;;;2081176;28;45737;-68
2021/05/27 00:41:09;;;;;;;;;;;;;;;;;;2089294;28;45626;-68
2021/05/27 00:42:10;;;;;;;;;;;;;;;;;;2088993;28;46845;-68
2021/05/27 00:43:12;;;;;;;;;;;;;;;;;;2088985;28;46099;-68
2021/05/27 00:44:23;;;;;;;;;;;;;;;;;;2089199;28;43086;-68
2021/05/27 00:45:25;;;;;;;;;;;;;;;;;;2090031;28;44349;-68
2021/05/27 00:46:26;;;;;;;;;;;;;;;;;;2088776;28;46870;-69
2021/05/27 00:47:28;;;;;;;;;;;;;;;;;;2088934;28;46936;-68
2021/05/27 00:49:49;;;;;;;;;;;;;;;;;;2094849;28;45878;-68
2021/05/27 00:50:50;;;;;;;;;;;;;;;;;;2097704;28;45824;-68
2021/05/27 00:51:52;;;;;;;;;;;;;;;;;;2097607;28;47128;-68
2021/05/27 00:52:54;;;;;;;;;;;;;;;;;;2089160;28;45066;-68
2021/05/27 00:53:56;;;;;;;;;;;;;;;;;;2089324;28;46377;-68
2021/05/27 00:54:59;;;;;;;;;;;;;;;;;;2089371;28;45450;-68
2021/05/27 00:56:00;;;;;;;;;;;;;;;;;;2089039;28;45129;-68
2021/05/27 00:57:05;;;;;;;;;;;;;;;;;;2097353;28;45173;-69
2021/05/27 00:58:06;;;;;;;;;;;;;;;;;;2089055;28;45420;-67
2021/05/27 00:59:09;;;;;;;;;;;;;;;;;;2089348;28;45031;-68
2021/05/27 01:00:13;;;;;;;;;;;;;;;;;;2089139;28;43958;-68
2021/05/27 01:01:15;;;;;;;;;;;;;;;;;;2089289;28;45167;-68
2021/05/27 01:02:16;;;;;;;;;;;;;;;;;;2089011;28;42256;-68
2021/05/27 01:03:18;;;;;;;;;;;;;;;;;;2097580;28;45331;-68
2021/05/27 01:04:20;;;;;;;;;;;;;;;;;;2089354;28;46423;-68
2021/05/27 01:05:21;;;;;;;;;;;;;;;;;;2089718;28;45181;-68
2021/05/27 01:06:23;;;;;;;;;;;;;;;;;;2096996;28;46751;-68
2021/05/27 01:07:24;;;;;;;;;;;;;;;;;;2089204;28;45474;-68
2021/05/27 01:08:25;;;;;;;;;;;;;;;;;;2081024;28;46357;-68
2021/05/27 01:09:27;;;;;;;;;;;;;;;;;;2080580;28;45976;-68
2021/05/27 01:10:29;;;;;;;;;;;;;;;;;;2080916;28;45415;-68
2021/05/27 01:11:30;;;;;;;;;;;;;;;;;;2081413;28;44115;-68
2021/05/27 01:12:31;;;;;;;;;;;;;;;;;;2080837;28;46458;-69
2021/05/27 01:13:33;;;;;;;;;;;;;;;;;;2081450;28;46530;-69
2021/05/27 01:15:54;;;;;;;;;;;;;;;;;;2089620;28;45423;-69
2021/05/27 01:16:56;;;;;;;;;;;;;;;;;;2088933;28;43856;-69
2021/05/27 01:17:59;;;;;;;;;;;;;;;;;;2089204;28;45430;-69
2021/05/27 01:19:00;;;;;;;;;;;;;;;;;;2088994;28;46488;-68
2021/05/27 01:20:03;;;;;;;;;;;;;;;;;;2089027;28;46606;-69
2021/05/27 01:21:04;;;;;;;;;;;;;;;;;;2088916;28;45689;-70
2021/05/27 01:22:05;;;;;;;;;;;;;;;;;;2088967;28;45459;-69
2021/05/27 01:23:09;;;;;;;;;;;;;;;;;;2088882;28;46500;-70
2021/05/27 01:24:10;;;;;;;;;;;;;;;;;;2081266;28;45447;-70
2021/05/27 01:25:12;;;;;;;;;;;;;;;;;;2088714;28;45506;-70
2021/05/27 01:26:13;;;;;;;;;;;;;;;;;;2088719;28;46814;-70
2021/05/27 01:27:16;;;;;;;;;;;;;;;;;;2089295;28;46597;-70
2021/05/27 01:28:18;;;;;;;;;;;;;;;;;;2089770;28;45391;-70
2021/05/27 01:29:19;;;;;;;;;;;;;;;;;;2088650;28;44093;-70
2021/05/27 01:30:21;;;;;;;;;;;;;;;;;;2089044;28;46746;-71
2021/05/27 01:31:23;;;;;;;;;;;;;;;;;;2097168;28;45287;-68
2021/05/27 01:32:24;;;;;;;;;;;;;;;;;;2097360;28;44111;-70
2021/05/27 01:33:27;;;;;;;;;;;;;;;;;;2089232;28;43836;-70
2021/05/27 01:34:29;;;;;;;;;;;;;;;;;;2081266;28;45404;-70
2021/05/27 01:35:30;;;;;;;;;;;;;;;;;;2089075;28;46520;-70
2021/05/27 01:36:31;;;;;;;;;;;;;;;;;;2088868;28;46033;-70
2021/05/27 01:37:36;;;;;;;;;;;;;;;;;;2097112;28;45944;-71
2021/05/27 01:38:37;;;;;;;;;;;;;;;;;;2089187;28;47303;-70
2021/05/27 01:39:43;;;;;;;;;;;;;;;;;;2088941;28;44918;-70
2021/05/27 01:40:44;;;;;;;;;;;;;;;;;;2088883;28;46482;-70
2021/05/27 01:41:48;;;;;;;;;;;;;;;;;;2088707;28;46999;-70
2021/05/27 01:42:50;;;;;;;;;;;;;;;;;;2088813;28;45784;-70
2021/05/27 01:43:51;;;;;;;;;;;;;;;;;;2088826;28;43108;-70
2021/05/27 01:44:53;;;;;;;;;;;;;;;;;;2088945;28;44556;-70
2021/05/27 01:45:55;;;;;;;;;;;;;;;;;;2080472;28;45868;-70
2021/05/27 01:46:56;;;;;;;;;;;;;;;;;;2088720;28;45720;-70
2021/05/27 01:47:57;;;;;;;;;;;;;;;;;;2088876;28;47070;-70
2021/05/27 01:48:59;;;;;;;;;;;;;;;;;;2088880;28;45978;-70
2021/05/27 01:50:00;;;;;;;;;;;;;;;;;;2096743;28;47395;-70
2021/05/27 01:51:02;;;;;;;;;;;;;;;;;;2088834;28;45869;-70
2021/05/27 01:52:03;;;;;;;;;;;;;;;;;;2088458;28;47117;-70
2021/05/27 01:53:07;;;;;;;;;;;;;;;;;;2088965;28;47056;-70
2021/05/27 01:54:08;;;;;;;;;;;;;;;;;;2088821;28;47264;-70
2021/05/27 01:55:09;;;;;;;;;;;;;;;;;;2088971;28;46040;-70
2021/05/27 01:56:11;;;;;;;;;;;;;;;;;;2088741;28;43901;-70
2021/05/27 01:57:13;;;;;;;;;;;;;;;;;;2089043;28;45922;-70
2021/05/27 01:58:15;;;;;;;;;;;;;;;;;;2088829;28;45895;-70
2021/05/27 01:59:17;;;;;;;;;;;;;;;;;;2088703;28;46393;-70
2021/05/27 02:00:19;;;;;;;;;;;;;;;;;;2088647;28;44297;-70
2021/05/27 02:01:20;;;;;;;;;;;;;;;;;;2088877;28;43026;-70
2021/05/27 02:02:21;;;;;;;;;;;;;;;;;;2088643;28;45074;-70
2021/05/27 02:03:23;;;;;;;;;;;;;;;;;;2097016;28;45136;-70
2021/05/27 02:04:24;;;;;;;;;;;;;;;;;;2096769;28;45530;-70
2021/05/27 02:05:26;;;;;;;;;;;;;;;;;;2088775;28;45165;-70
2021/05/27 02:06:27;;;;;;;;;;;;;;;;;;2088424;28;45348;-70
2021/05/27 02:07:29;;;;;;;;;;;;;;;;;;2088841;28;45134;-70
2021/05/27 02:08:30;;;;;;;;;;;;;;;;;;2088892;28;46676;-70
2021/05/27 02:09:31;;;;;;;;;;;;;;;;;;2088076;28;46396;-71
2021/05/27 02:10:33;;;;;;;;;;;;;;;;;;2088491;28;46222;-70
2021/05/27 02:11:38;;;;;;;;;;;;;;;;;;2080839;28;45294;-70
2021/05/27 02:12:40;;;;;;;;;;;;;;;;;;2089037;28;45280;-70
2021/05/27 02:13:41;;;;;;;;;;;;;;;;;;2088960;28;46591;-70
2021/05/27 02:14:42;;;;;;;;;;;;;;;;;;2088569;28;45471;-70
2021/05/27 02:15:44;;;;;;;;;;;;;;;;;;2088841;28;45140;-70
2021/05/27 02:16:46;;;;;;;;;;;;;;;;;;2080307;28;45071;-70
2021/05/27 02:17:47;;;;;;;;;;;;;;;;;;2088927;28;45170;-70
2021/05/27 02:18:49;;;;;;;;;;;;;;;;;;2089432;28;45316;-70
2021/05/27 02:19:50;;;;;;;;;;;;;;;;;;2089789;28;46631;-70
2021/05/27 02:20:52;;;;;;;;;;;;;;;;;;2096780;28;45594;-70
2021/05/27 02:21:53;;;;;;;;;;;;;;;;;;2088839;28;46918;-69
2021/05/27 02:22:54;;;;;;;;;;;;;;;;;;2088644;28;45149;-68
2021/05/27 02:23:57;;;;;;;;;;;;;;;;;;2089059;28;43842;-68
2021/05/27 02:24:58;;;;;;;;;;;;;;;;;;2088582;28;45473;-68
2021/05/27 02:25:59;;;;;;;;;;;;;;;;;;2097080;28;46501;-68
2021/05/27 02:27:01;;;;;;;;;;;;;;;;;;2088570;28;44278;-69
2021/05/27 02:28:02;;;;;;;;;;;;;;;;;;2088622;28;46483;-68
2021/05/27 02:29:04;;;;;;;;;;;;;;;;;;2088806;28;44108;-68
2021/05/27 02:30:06;;;;;;;;;;;;;;;;;;2088492;28;46698;-68
2021/05/27 02:31:07;;;;;;;;;;;;;;;;;;2088710;28;43700;-68
2021/05/27 02:32:09;;;;;;;;;;;;;;;;;;2088894;28;46702;-68
2021/05/27 02:33:10;;;;;;;;;;;;;;;;;;2088644;28;46732;-68
2021/05/27 02:34:12;;;;;;;;;;;;;;;;;;2088657;28;46625;-68
2021/05/27 02:35:13;;;;;;;;;;;;;;;;;;2088875;28;45304;-68
2021/05/27 02:36:15;;;;;;;;;;;;;;;;;;2096683;28;46580;-68
2021/05/27 02:37:16;;;;;;;;;;;;;;;;;;2096831;28;44056;-68
2021/05/27 02:38:17;;;;;;;;;;;;;;;;;;2088484;28;44880;-68
2021/05/27 02:39:19;;;;;;;;;;;;;;;;;;2088803;28;46475;-68
2021/05/27 02:40:21;;;;;;;;;;;;;;;;;;2088764;28;45451;-68
2021/05/27 02:41:22;;;;;;;;;;;;;;;;;;2088899;28;45432;-68
2021/05/27 02:42:24;;;;;;;;;;;;;;;;;;2088497;28;45722;-68
2021/05/27 02:43:25;;;;;;;;;;;;;;;;;;2088649;28;46185;-68
2021/05/27 02:44:27;;;;;;;;;;;;;;;;;;2097203;28;45137;-68
2021/05/27 02:45:28;;;;;;;;;;;;;;;;;;2089184;28;45856;-68
2021/05/27 02:46:29;;;;;;;;;;;;;;;;;;2096763;28;46928;-68
2021/05/27 02:47:31;;;;;;;;;;;;;;;;;;2088420;28;47157;-68
2021/05/27 02:48:33;;;;;;;;;;;;;;;;;;2088392;28;46185;-68
2021/05/27 02:49:34;;;;;;;;;;;;;;;;;;2088598;28;45733;-67
2021/05/27 02:50:36;;;;;;;;;;;;;;;;;;2088504;28;47016;-67
2021/05/27 02:51:37;;;;;;;;;;;;;;;;;;2096338;28;46886;-68
2021/05/27 02:52:38;;;;;;;;;;;;;;;;;;2087813;28;47331;-69
2021/05/27 02:53:40;;;;;;;;;;;;;;;;;;2088200;28;46277;-69
2021/05/27 02:54:41;;;;;;;;;;;;;;;;;;2089202;28;45635;-69
2021/05/27 02:55:43;;;;;;;;;;;;;;;;;;2088756;28;45725;-68
2021/05/27 02:56:44;;;;;;;;;;;;;;;;;;2079898;28;45756;-67
2021/05/27 02:57:46;;;;;;;;;;;;;;;;;;2088753;28;45863;-68
2021/05/27 02:58:47;;;;;;;;;;;;;;;;;;2088904;28;45916;-67
2021/05/27 02:59:49;;;;;;;;;;;;;;;;;;2089359;28;45734;-68
2021/05/27 03:00:50;;;;;;;;;;;;;;;;;;2097107;28;44104;-68
2021/05/27 03:01:52;;;;;;;;;;;;;;;;;;2096707;28;43920;-68
2021/05/27 03:02:53;;;;;;;;;;;;;;;;;;2088166;28;47016;-68
2021/05/27 03:03:55;;;;;;;;;;;;;;;;;;2088952;28;47303;-68
2021/05/27 03:04:56;;;;;;;;;;;;;;;;;;2096495;28;45420;-68
2021/05/27 03:06:00;;;;;;;;;;;;;;;;;;2096885;28;45132;-68
2021/05/27 03:07:02;;;;;;;;;;;;;;;;;;2088173;28;45580;-68
2021/05/27 03:08:03;;;;;;;;;;;;;;;;;;2080331;28;45284;-68
2021/05/27 03:09:05;;;;;;;;;;;;;;;;;;2088524;28;45174;-68
2021/05/27 03:10:06;;;;;;;;;;;;;;;;;;2089646;28;44482;-67
2021/05/27 03:11:08;;;;;;;;;;;;;;;;;;2089894;28;46305;-67
2021/05/27 03:12:09;;;;;;;;;;;;;;;;;;2090180;28;46125;-67
2021/05/27 03:13:11;;;;;;;;;;;;;;;;;;2081470;28;45410;-67
2021/05/27 03:14:12;;;;;;;;;;;;;;;;;;2081930;28;45497;-66
2021/05/27 03:15:14;;;;;;;;;;;;;;;;;;2089833;28;45449;-67
2021/05/27 03:16:15;;;;;;;;;;;;;;;;;;2089817;28;46435;-67
2021/05/27 03:17:17;;;;;;;;;;;;;;;;;;2089770;28;45260;-67
2021/05/27 03:18:18;;;;;;;;;;;;;;;;;;2098205;28;45254;-67
2021/05/27 03:19:19;;;;;;;;;;;;;;;;;;2089759;28;46794;-67
2021/05/27 03:20:21;;;;;;;;;;;;;;;;;;2081838;28;46246;-66
2021/05/27 03:21:23;;;;;;;;;;;;;;;;;;2089515;28;46234;-67
2021/05/27 03:22:25;;;;;;;;;;;;;;;;;;2090494;28;46400;-67
2021/05/27 03:23:26;;;;;;;;;;;;;;;;;;2097881;28;46889;-68
2021/05/27 03:24:28;;;;;;;;;;;;;;;;;;2097974;28;45657;-68
2021/05/27 03:25:29;;;;;;;;;;;;;;;;;;2089733;28;45314;-67
2021/05/27 03:26:31;;;;;;;;;;;;;;;;;;2089922;28;43938;-68
2021/05/27 03:27:32;;;;;;;;;;;;;;;;;;2089683;28;45391;-68
2021/05/27 03:28:34;;;;;;;;;;;;;;;;;;2090046;28;43998;-68
2021/05/27 03:29:36;;;;;;;;;;;;;;;;;;2098041;28;45462;-68
2021/05/27 03:30:37;;;;;;;;;;;;;;;;;;2097878;28;45913;-68
2021/05/27 03:31:39;;;;;;;;;;;;;;;;;;2089690;28;46348;-68
2021/05/27 03:32:40;;;;;;;;;;;;;;;;;;2089805;28;46480;-68
2021/05/27 03:33:42;;;;;;;;;;;;;;;;;;2089841;28;45316;-69
2021/05/27 03:34:43;;;;;;;;;;;;;;;;;;2090098;28;43569;-67
2021/05/27 03:35:44;;;;;;;;;;;;;;;;;;2098336;28;45489;-67
2021/05/27 03:36:46;;;;;;;;;;;;;;;;;;2097678;28;44034;-67
2021/05/27 03:37:47;;;;;;;;;;;;;;;;;;2098140;28;45246;-68
2021/05/27 03:38:49;;;;;;;;;;;;;;;;;;2089804;28;44934;-68
2021/05/27 03:41:10;;;;;;;;;;;;;;;;;;2090253;28;43961;-69
2021/05/27 03:42:11;;;;;;;;;;;;;;;;;;2097888;28;44257;-69
2021/05/27 03:43:13;;;;;;;;;;;;;;;;;;2089851;28;44116;-69
2021/05/27 03:44:15;;;;;;;;;;;;;;;;;;2089471;28;45366;-69
2021/05/27 03:45:18;;;;;;;;;;;;;;;;;;2090465;28;46688;-69
2021/05/27 03:46:19;;;;;;;;;;;;;;;;;;2090420;28;44095;-69
2021/05/27 03:47:20;;;;;;;;;;;;;;;;;;2098613;28;45534;-69
2021/05/27 03:48:22;;;;;;;;;;;;;;;;;;2098138;28;44697;-69
2021/05/27 03:49:24;;;;;;;;;;;;;;;;;;2089822;28;42370;-68
2021/05/27 03:50:26;;;;;;;;;;;;;;;;;;2081676;28;44893;-69
2021/05/27 03:51:27;;;;;;;;;;;;;;;;;;2089963;28;44104;-67
2021/05/27 03:52:29;;;;;;;;;;;;;;;;;;2089640;28;45897;-67
2021/05/27 03:53:30;;;;;;;;;;;;;;;;;;2081552;28;46869;-68
2021/05/27 03:54:31;;;;;;;;;;;;;;;;;;2089803;28;46937;-67
2021/05/27 03:55:33;;;;;;;;;;;;;;;;;;2098047;28;45763;-67
2021/05/27 03:56:34;;;;;;;;;;;;;;;;;;2089926;28;47198;-70
2021/05/27 03:57:36;;;;;;;;;;;;;;;;;;2089421;28;46897;-70
2021/05/27 04:01:18;;;;;;;;;;;;;;;;;;2090799;28;45548;-70
2021/05/27 04:02:20;;;;;;;;;;;;;;;;;;2090512;28;44580;-70
2021/05/27 04:03:22;;;;;;;;;;;;;;;;;;2090316;28;46575;-70
2021/05/27 04:07:16;;;;;;;;;;;;;;;;;;2090823;28;46074;-70
2021/05/27 04:08:17;;;;;;;;;;;;;;;;;;2090317;28;45954;-71
2021/05/27 04:09:19;;;;;;;;;;;;;;;;;;2090027;28;44477;-70
2021/05/27 04:10:20;;;;;;;;;;;;;;;;;;2097978;28;45271;-71
2021/05/27 04:11:22;;;;;;;;;;;;;;;;;;2090281;28;46863;-71
2021/05/27 04:13:43;;;;;;;;;;;;;;;;;;2095596;28;43782;-72
2021/05/27 04:15:19;;;;;;;;;;;;;;;;;;2090153;28;45246;-71
2021/05/27 04:16:06;;;;;;;;;;;;;;;;;;2089619;28;45611;-71
2021/05/27 04:17:08;;;;;;;;;;;;;;;;;;2098267;28;43971;-71
2021/05/27 04:18:12;;;;;;;;;;;;;;;;;;2089106;28;43982;-71
2021/05/27 04:19:13;;;;;;;;;;;;;;;;;;2073972;28;45281;-71
2021/05/27 04:20:15;;;;;;;;;;;;;;;;;;2081056;28;45123;-71
2021/05/27 04:21:17;;;;;;;;;;;;;;;;;;2089537;28;46310;-71
2021/05/27 04:22:19;;;;;;;;;;;;;;;;;;2088346;28;45532;-72
2021/05/27 04:23:36;;;;;;;;;;;;;;;;;;2081360;28;45139;-71
2021/05/27 04:24:37;;;;;;;;;;;;;;;;;;2081266;28;45186;-71
2021/05/27 04:25:39;;;;;;;;;;;;;;;;;;2081149;28;46570;-72
2021/05/27 04:26:41;;;;;;;;;;;;;;;;;;2081019;28;45537;-70
2021/05/27 04:27:43;;;;;;;;;;;;;;;;;;2081215;28;45047;-71
2021/05/27 04:28:45;;;;;;;;;;;;;;;;;;2098075;28;45272;-70
2021/05/27 04:29:47;;;;;;;;;;;;;;;;;;2089985;28;45175;-70
2021/05/27 04:32:51;;;;;;;;;;;;;;;;;;2092532;28;43834;-70
2021/05/27 04:33:29;;;;;;;;;;;;;;;;;;2081741;28;45324;-70
2021/05/27 04:34:31;;;;;;;;;;;;;;;;;;2081229;28;45260;-70
2021/05/27 04:35:36;;;;;;;;;;;;;;;;;;2081229;28;45425;-70
2021/05/27 04:36:37;;;;;;;;;;;;;;;;;;2089771;28;45390;-70
2021/05/27 04:37:39;;;;;;;;;;;;;;;;;;2089747;28;46495;-70
2021/05/27 04:38:41;;;;;;;;;;;;;;;;;;2081166;28;45266;-70
2021/05/27 04:39:42;;;;;;;;;;;;;;;;;;2081372;28;46150;-69
2021/05/27 04:40:45;;;;;;;;;;;;;;;;;;2089523;28;46035;-70
2021/05/27 04:41:47;;;;;;;;;;;;;;;;;;2089085;28;45591;-70
2021/05/27 04:42:48;;;;;;;;;;;;;;;;;;2080972;28;45399;-71
2021/05/27 04:43:57;;;;;;;;;;;;;;;;;;2089232;28;44297;-70
2021/05/27 04:44:58;;;;;;;;;;;;;;;;;;2082718;28;45469;-71
2021/05/27 04:46:01;;;;;;;;;;;;;;;;;;2081401;28;44669;-70
2021/05/27 04:47:02;;;;;;;;;;;;;;;;;;2081088;28;45393;-70
2021/05/27 04:48:05;;;;;;;;;;;;;;;;;;2083346;28;46786;-70
2021/05/27 04:49:06;;;;;;;;;;;;;;;;;;2089258;28;45466;-72
2021/05/27 04:50:08;;;;;;;;;;;;;;;;;;2089614;28;44055;-71
2021/05/27 04:51:10;;;;;;;;;;;;;;;;;;2097395;28;42534;-71
2021/05/27 04:52:11;;;;;;;;;;;;;;;;;;2089148;28;45345;-71
2021/05/27 04:53:12;;;;;;;;;;;;;;;;;;2081635;28;45359;-71
2021/05/27 04:54:14;;;;;;;;;;;;;;;;;;2089536;28;46043;-71
2021/05/27 04:55:15;;;;;;;;;;;;;;;;;;2089178;28;46541;-70
2021/05/27 04:56:17;;;;;;;;;;;;;;;;;;2089340;28;46427;-71
2021/05/27 04:57:18;;;;;;;;;;;;;;;;;;2089168;28;45937;-71
2021/05/27 04:58:20;;;;;;;;;;;;;;;;;;2097651;28;43010;-70
2021/05/27 04:59:22;;;;;;;;;;;;;;;;;;2089090;28;46199;-70
2021/05/27 05:00:24;;;;;;;;;;;;;;;;;;2089284;28;47055;-70
2021/05/27 05:01:26;;;;;;;;;;;;;;;;;;2089243;28;45880;-70
2021/05/27 05:02:27;;;;;;;;;;;;;;;;;;2097188;28;45766;-71
2021/05/27 05:03:29;;;;;;;;;;;;;;;;;;2097574;28;44836;-71
2021/05/27 05:04:30;;;;;;;;;;;;;;;;;;2089454;28;44609;-71
2021/05/27 05:05:33;;;;;;;;;;;;;;;;;;2080950;28;45822;-70
2021/05/27 05:06:34;;;;;;;;;;;;;;;;;;2089038;28;46934;-71
2021/05/27 05:07:38;;;;;;;;;;;;;;;;;;2089479;28;43300;-70
2021/05/27 05:08:39;;;;;;;;;;;;;;;;;;2096853;28;46944;-71
2021/05/27 05:09:41;;;;;;;;;;;;;;;;;;2097408;28;46031;-71
2021/05/27 05:10:43;;;;;;;;;;;;;;;;;;2097350;28;46227;-70
2021/05/27 05:11:45;;;;;;;;;;;;;;;;;;2097109;28;46960;-71
2021/05/27 05:12:49;;;;;;;;;;;;;;;;;;2097322;28;47238;-71
2021/05/27 05:13:50;;;;;;;;;;;;;;;;;;2088950;28;47049;-71
2021/05/27 05:14:51;;;;;;;;;;;;;;;;;;2089342;28;42825;-71
2021/05/27 05:15:53;;;;;;;;;;;;;;;;;;2088919;28;47106;-71
2021/05/27 05:16:54;;;;;;;;;;;;;;;;;;2081404;28;44187;-71
2021/05/27 05:17:57;;;;;;;;;;;;;;;;;;2089003;28;45989;-71
2021/05/27 05:18:59;;;;;;;;;;;;;;;;;;2089630;28;43029;-71
2021/05/27 05:20:00;;;;;;;;;;;;;;;;;;2088867;28;45163;-71
2021/05/27 05:21:01;;;;;;;;;;;;;;;;;;2089251;28;45906;-70
2021/05/27 05:22:03;;;;;;;;;;;;;;;;;;2088741;28;45135;-70
2021/05/27 05:23:05;;;;;;;;;;;;;;;;;;2097210;28;46620;-70
2021/05/27 05:24:07;;;;;;;;;;;;;;;;;;2088944;28;46551;-69
2021/05/27 05:25:09;;;;;;;;;;;;;;;;;;2088785;28;45326;-69
2021/05/27 05:26:10;;;;;;;;;;;;;;;;;;2088881;28;46249;-68
2021/05/27 05:27:12;;;;;;;;;;;;;;;;;;2080866;28;45263;-69
2021/05/27 05:28:14;;;;;;;;;;;;;;;;;;2089067;28;43925;-70
2021/05/27 05:29:15;;;;;;;;;;;;;;;;;;2088813;28;46619;-69
2021/05/27 05:30:17;;;;;;;;;;;;;;;;;;2089081;28;44564;-69
2021/05/27 05:31:18;;;;;;;;;;;;;;;;;;2088754;28;46384;-69
2021/05/27 05:32:19;;;;;;;;;;;;;;;;;;2088824;28;44720;-69
2021/05/27 05:33:21;;;;;;;;;;;;;;;;;;2087980;28;45654;-68
2021/05/27 05:34:22;;;;;;;;;;;;;;;;;;2089254;28;46416;-69
2021/05/27 05:35:24;;;;;;;;;;;;;;;;;;2096912;28;46327;-70
2021/05/27 05:36:26;;;;;;;;;;;;;;;;;;2088978;28;45147;-68
2021/05/27 05:37:27;;;;;;;;;;;;;;;;;;2088756;28;45184;-70
2021/05/27 05:38:29;;;;;;;;;;;;;;;;;;2089126;28;46489;-70
2021/05/27 05:39:30;;;;;;;;;;;;;;;;;;2088624;28;46444;-70
2021/05/27 05:40:32;;;;;;;;;;;;;;;;;;2097827;28;43233;-70
2021/05/27 05:41:33;;;;;;;;;;;;;;;;;;2096895;28;45655;-70
2021/05/27 05:42:35;;;;;;;;;;;;;;;;;;2096870;28;46485;-70
2021/05/27 05:43:37;;;;;;;;;;;;;;;;;;2089077;28;44889;-70
2021/05/27 05:44:38;;;;;;;;;;;;;;;;;;2080783;28;47231;-70
2021/05/27 05:45:39;;;;;;;;;;;;;;;;;;2080509;28;44552;-70
2021/05/27 05:46:41;;;;;;;;;;;;;;;;;;2088759;28;45425;-70
2021/05/27 05:47:46;;;;;;;;;;;;;;;;;;2089231;28;46558;-70
2021/05/27 05:48:48;;;;;;;;;;;;;;;;;;2089327;28;45617;-70
2021/05/27 05:49:49;;;;;;;;;;;;;;;;;;2088507;28;45221;-70
2021/05/27 05:50:52;;;;;;;;;;;;;;;;;;2089026;28;46539;-70
2021/05/27 05:51:54;;;;;;;;;;;;;;;;;;2089128;28;45678;-69
2021/05/27 05:52:56;;;;;;;;;;;;;;;;;;2096714;28;45376;-71
2021/05/27 05:53:57;;;;;;;;;;;;;;;;;;2088801;28;45829;-70
2021/05/27 05:54:58;;;;;;;;;;;;;;;;;;2088943;28;44448;-69
2021/05/27 05:56:00;;;;;;;;;;;;;;;;;;2088790;28;46634;-70
2021/05/27 05:57:01;;;;;;;;;;;;;;;;;;2089280;28;46524;-69
2021/05/27 05:58:04;;;;;;;;;;;;;;;;;;2089553;28;45405;-69
2021/05/27 05:59:05;;;;;;;;;;;;;;;;;;2089152;28;44028;-69
2021/05/27 06:00:07;;;;;;;;;;;;;;;;;;2088828;28;43340;-71
2021/05/27 06:01:08;;;;;;;;;;;;;;;;;;2088853;28;44168;-70
2021/05/27 06:02:10;;;;;;;;;;;;;;;;;;2088929;28;45565;-70
2021/05/27 06:03:12;;;;;;;;;;;;;;;;;;2089441;28;45863;-70
2021/05/27 06:04:13;;;;;;;;;;;;;;;;;;2089203;28;47060;-70
2021/05/27 06:05:15;;;;;;;;;;;;;;;;;;2097338;28;45003;-71
2021/05/27 06:06:16;;;;;;;;;;;;;;;;;;2096779;28;44359;-70
2021/05/27 06:07:19;;;;;;;;;;;;;;;;;;2097317;28;45887;-72
2021/05/27 06:08:21;;;;;;;;;;;;;;;;;;2088762;28;44584;-70
2021/05/27 06:09:24;;;;;;;;;;;;;;;;;;2089202;28;45113;-70
2021/05/27 06:10:26;;;;;;;;;;;;;;;;;;2097676;28;45160;-70
2021/05/27 06:11:27;;;;;;;;;;;;;;;;;;2089123;28;45875;-70
2021/05/27 06:12:28;;;;;;;;;;;;;;;;;;2088159;28;46277;-71
2021/05/27 06:13:30;;;;;;;;;;;;;;;;;;2089488;28;47029;-70
2021/05/27 06:14:33;;;;;;;;;;;;;;;;;;2090115;28;46195;-72
2021/05/27 06:15:36;;;;;;;;;;;;;;;;;;2088723;28;47215;-72
2021/05/27 06:16:38;;;;;;;;;;;;;;;;;;2080079;28;45745;-72
2021/05/27 06:17:39;;;;;;;;;;;;;;;;;;2081162;28;44557;-71
2021/05/27 06:18:41;;;;;;;;;;;;;;;;;;2088896;28;46204;-71
2021/05/27 06:19:43;;;;;;;;;;;;;;;;;;2089408;28;45188;-72
2021/05/27 06:20:44;;;;;;;;;;;;;;;;;;2088665;28;45865;-72
2021/05/27 06:21:45;;;;;;;;;;;;;;;;;;2089374;28;46989;-71
2021/05/27 06:22:47;;;;;;;;;;;;;;;;;;2086811;28;45718;-72
2021/05/27 06:23:49;;;;;;;;;;;;;;;;;;2080391;28;44407;-71
2021/05/27 06:24:50;;;;;;;;;;;;;;;;;;2078703;28;44589;-69
2021/05/27 06:25:52;;;;;;;;;;;;;;;;;;2088635;28;45521;-69
2021/05/27 06:26:53;;;;;;;;;;;;;;;;;;2089013;28;43896;-69
2021/05/27 06:27:55;;;;;;;;;;;;;;;;;;2088851;28;45258;-69
2021/05/27 06:28:57;;;;;;;;;;;;;;;;;;2088779;28;45406;-70
2021/05/27 06:29:58;;;;;;;;;;;;;;;;;;2088688;28;46610;-69
2021/05/27 06:30:59;;;;;;;;;;;;;;;;;;2089610;28;45307;-68
2021/05/27 06:32:01;;;;;;;;;;;;;;;;;;2091018;28;44204;-71
2021/05/27 06:33:03;;;;;;;;;;;;;;;;;;2088972;28;44224;-72
2021/05/27 06:34:04;;;;;;;;;;;;;;;;;;2089509;28;46305;-72
2021/05/27 06:35:07;;;;;;;;;;;;;;;;;;2089144;28;42875;-71
2021/05/27 06:36:10;;;;;;;;;;;;;;;;;;2081033;28;43989;-70
2021/05/27 06:37:12;;;;;;;;;;;;;;;;;;2080825;28;45336;-70
2021/05/27 06:38:14;;;;;;;;;;;;;;;;;;2082590;28;43775;-68
2021/05/27 06:39:19;;;;;;;;;;;;;;;;;;2082906;28;44817;-70
2021/05/27 06:40:23;;;;;;;;;;;;;;;;;;2081102;28;45763;-70
2021/05/27 06:41:24;;;;;;;;;;;;;;;;;;2081461;28;46471;-71
2021/05/27 06:42:26;;;;;;;;;;;;;;;;;;2080413;28;45174;-71
2021/05/27 06:43:28;;;;;;;;;;;;;;;;;;2081899;28;46048;-71
2021/05/27 06:44:29;;;;;;;;;;;;;;;;;;2080279;28;44123;-71
2021/05/27 06:45:31;;;;;;;;;;;;;;;;;;2083241;28;46405;-70
2021/05/27 06:46:32;;;;;;;;;;;;;;;;;;2082673;28;43946;-70
2021/05/27 06:47:41;;;;;;;;;;;;;;;;;;2075214;28;48081;-70
2021/05/27 06:48:46;;;;;;;;;;;;;;;;;;2082772;28;44320;-69
2021/05/27 06:49:48;;;;;;;;;;;;;;;;;;2090079;28;45408;-69
2021/05/27 06:50:49;;;;;;;;;;;;;;;;;;2091390;28;46492;-72
2021/05/27 06:51:51;;;;;;;;;;;;;;;;;;2090357;28;46769;-73
2021/05/27 06:52:52;;;;;;;;;;;;;;;;;;2090059;28;43141;-70
2021/05/27 06:53:54;;;;;;;;;;;;;;;;;;2081620;28;45672;-70
2021/05/27 06:54:55;;;;;;;;;;;;;;;;;;2081769;28;46484;-71
2021/05/27 06:55:57;;;;;;;;;;;;;;;;;;2081930;28;45653;-71
2021/05/27 06:56:58;;;;;;;;;;;;;;;;;;2080156;28;46415;-71
2021/05/27 06:58:00;;;;;;;;;;;;;;;;;;2087679;28;45483;-71
2021/05/27 06:59:01;;;;;;;;;;;;;;;;;;2091236;28;45287;-70
2021/05/27 07:00:04;;;;;;;;;;;;;;;;;;2091452;28;45363;-71
2021/05/27 07:01:05;;;;;;;;;;;;;;;;;;2091288;28;45769;-72
2021/05/27 07:02:07;;;;;;;;;;;;;;;;;;2090728;28;44972;-71
2021/05/27 07:03:08;;;;;;;;;;;;;;;;;;2091191;28;46551;-70
2021/05/27 07:04:11;;;;;;;;;;;;;;;;;;2091107;28;45535;-68
2021/05/27 07:05:13;;;;;;;;;;;;;;;;;;2083333;28;46535;-72
2021/05/27 07:06:15;;;;;;;;;;;;;;;;;;2090984;28;45528;-71
2021/05/27 07:07:17;;;;;;;;;;;;;;;;;;2090500;28;44412;-72
2021/05/27 07:08:18;;;;;;;;;;;;;;;;;;2089819;28;44431;-71
2021/05/27 07:09:20;;;;;;;;;;;;;;;;;;2090220;28;44316;-71
2021/05/27 07:10:22;;;;;;;;;;;;;;;;;;2090031;28;47222;-71
2021/05/27 07:11:23;;;;;;;;;;;;;;;;;;2082294;28;46223;-72
2021/05/27 07:12:25;;;;;;;;;;;;;;;;;;2089515;28;47014;-72
2021/05/27 07:13:26;;;;;;;;;;;;;;;;;;2090222;28;45843;-72
2021/05/27 07:14:29;;;;;;;;;;;;;;;;;;2090714;28;43997;-71